Time;durP1;ratioP1;P1;durP2;ratioP2;P2;SDS_P1;SDS_P2;PMS_P1;PMS_P2;Temp;Humidity;BMP_temperature;BMP_pressure;BME280_temperature;BME280_humidity;BME280_pressure;Samples;Min_cycle;Max_cycle;Signal;HPM_P1;HPM_P2
2022/11/12 00:00:22;;;;;;;8.77;4.80;;;;;;;;;;4984589;28;20041;-79
2022/11/12 00:02:48;;;;;;;7.55;4.20;;;;;;;;;;4979311;28;20030;-78
2022/11/12 00:05:13;;;;;;;7.78;4.43;;;;;;;;;;4978280;28;20065;-80
2022/11/12 00:07:39;;;;;;;7.75;4.63;;;;;;;;;;4969950;28;20066;-79
2022/11/12 00:10:04;;;;;;;7.50;4.13;;;;;;;;;;4986559;28;20125;-79
2022/11/12 00:12:30;;;;;;;9.38;4.75;;;;;;;;;;4976324;28;20421;-80
2022/11/12 00:14:58;;;;;;;7.38;4.55;;;;;;;;;;4991545;28;20490;-79
2022/11/12 00:17:23;;;;;;;7.85;4.10;;;;;;;;;;4974812;28;20121;-81
2022/11/12 00:19:49;;;;;;;7.00;4.15;;;;;;;;;;4976902;28;20121;-80
2022/11/12 00:22:14;;;;;;;10.48;5.05;;;;;;;;;;4961748;28;20030;-79
2022/11/12 00:24:40;;;;;;;7.75;4.47;;;;;;;;;;4958286;28;20152;-80
2022/11/12 00:27:05;;;;;;;8.30;4.90;;;;;;;;;;4979248;28;20026;-79
2022/11/12 00:29:30;;;;;;;7.57;4.25;;;;;;;;;;4991905;28;20563;-78
2022/11/12 00:31:56;;;;;;;8.45;4.13;;;;;;;;;;4978565;28;20125;-79
2022/11/12 00:34:21;;;;;;;8.38;4.63;;;;;;;;;;4962651;28;20061;-79
2022/11/12 00:36:47;;;;;;;9.15;4.75;;;;;;;;;;4978928;28;20054;-80
2022/11/12 00:39:12;;;;;;;9.02;4.22;;;;;;;;;;4965576;28;20058;-78
2022/11/12 00:41:38;;;;;;;8.02;4.75;;;;;;;;;;4976448;28;20493;-79
2022/11/12 00:44:03;;;;;;;8.57;4.50;;;;;;;;;;4976510;28;20093;-79
2022/11/12 00:46:29;;;;;;;7.65;4.38;;;;;;;;;;4968878;28;20057;-80
2022/11/12 00:48:55;;;;;;;9.02;4.82;;;;;;;;;;4970469;28;20082;-78
2022/11/12 00:51:20;;;;;;;9.05;5.00;;;;;;;;;;4965155;28;20124;-79
2022/11/12 00:53:49;;;;;;;8.57;3.85;;;;;;;;;;4969893;28;20421;-79
2022/11/12 00:56:17;;;;;;;8.93;4.40;;;;;;;;;;4993828;28;20844;-79
2022/11/12 00:58:43;;;;;;;9.60;4.38;;;;;;;;;;4956141;28;20035;-79
2022/11/12 01:01:11;;;;;;;7.88;4.18;;;;;;;;;;4977200;28;20466;-79
2022/11/12 01:03:37;;;;;;;8.60;4.15;;;;;;;;;;4969643;28;20387;-78
2022/11/12 01:06:13;;;;;;;8.40;4.30;;;;;;;;;;4960365;28;20039;-80
2022/11/12 01:08:39;;;;;;;6.45;3.80;;;;;;;;;;4994756;28;20037;-78
2022/11/12 01:11:20;;;;;;;10.25;4.57;;;;;;;;;;4977301;28;20409;-78
2022/11/12 01:13:47;;;;;;;7.00;4.20;;;;;;;;;;4964313;28;20092;-78
2022/11/12 01:16:21;;;;;;;7.22;3.97;;;;;;;;;;4982898;28;20034;-79
2022/11/12 01:18:47;;;;;;;7.28;3.97;;;;;;;;;;4986132;28;20553;-82
2022/11/12 01:21:13;;;;;;;8.18;4.00;;;;;;;;;;4991187;28;20382;-80
2022/11/12 01:23:40;;;;;;;6.85;3.90;;;;;;;;;;4964639;28;20122;-78
2022/11/12 01:26:10;;;;;;;7.15;4.00;;;;;;;;;;4983930;28;20096;-79
2022/11/12 01:28:36;;;;;;;7.97;3.88;;;;;;;;;;4974494;28;20396;-80
2022/11/12 01:31:18;;;;;;;9.43;4.15;;;;;;;;;;4968762;28;20114;-78
2022/11/12 01:33:46;;;;;;;8.05;4.30;;;;;;;;;;4994618;28;20436;-79
2022/11/12 01:36:12;;;;;;;;;;;;;;;;;;4977972;28;20065;-78
2022/11/12 01:38:39;;;;;;;8.52;4.00;;;;;;;;;;4993272;28;19917;-80
2022/11/12 01:41:05;;;;;;;8.45;4.68;;;;;;;;;;4981530;28;20038;-78
2022/11/12 01:43:30;;;;;;;6.53;4.07;;;;;;;;;;4965610;28;20449;-82
2022/11/12 01:45:56;;;;;;;6.60;3.75;;;;;;;;;;4968945;28;20046;-79
2022/11/12 01:48:37;;;;;;;9.05;4.32;;;;;;;;;;4981758;28;20035;-79
2022/11/12 01:51:04;;;;;;;8.32;3.88;;;;;;;;;;4975245;28;20038;-78
2022/11/12 01:53:33;;;;;;;10.50;3.92;;;;;;;;;;4980546;28;20520;-79
2022/11/12 01:55:59;;;;;;;8.65;4.40;;;;;;;;;;4966415;28;20774;-81
2022/11/12 01:58:28;;;;;;;5.97;3.58;;;;;;;;;;4985979;28;20034;-80
2022/11/12 02:00:53;;;;;;;8.13;3.75;;;;;;;;;;4995120;28;20038;-80
2022/11/12 02:03:21;;;;;;;7.78;3.58;;;;;;;;;;4969275;28;20097;-80
2022/11/12 02:05:50;;;;;;;7.63;3.92;;;;;;;;;;4966252;28;20092;-81
2022/11/12 02:08:16;;;;;;;6.38;3.67;;;;;;;;;;4972726;28;20030;-81
2022/11/12 02:10:41;;;;;;;6.22;3.75;;;;;;;;;;4994778;28;20531;-78
2022/11/12 02:15:54;;;;;;;7.90;3.95;;;;;;;;;;4985450;28;20105;-79
2022/11/12 02:18:20;;;;;;;6.80;3.53;;;;;;;;;;4964017;28;20505;-79
2022/11/12 02:20:52;;;;;;;6.88;3.30;;;;;;;;;;4983361;28;20037;-83
2022/11/12 02:23:17;;;;;;;7.10;4.25;;;;;;;;;;4980897;28;20030;-80
2022/11/12 02:25:43;;;;;;;5.97;3.33;;;;;;;;;;4987214;28;20048;-80
2022/11/12 02:28:08;;;;;;;7.45;3.90;;;;;;;;;;4978405;28;20033;-80
2022/11/12 02:30:40;;;;;;;6.28;3.38;;;;;;;;;;4978503;28;20362;-80
2022/11/12 02:33:05;;;;;;;6.60;3.40;;;;;;;;;;4972795;28;20042;-79
2022/11/12 02:35:31;;;;;;;6.43;3.35;;;;;;;;;;4988100;28;20073;-80
2022/11/12 02:37:56;;;;;;;5.90;3.45;;;;;;;;;;4959858;28;20046;-80
2022/11/12 02:40:22;;;;;;;7.05;3.80;;;;;;;;;;4963707;28;20030;-81
2022/11/12 02:42:47;;;;;;;7.30;3.30;;;;;;;;;;4994784;28;20117;-80
2022/11/12 02:45:13;;;;;;;7.47;4.15;;;;;;;;;;4981904;28;20030;-80
2022/11/12 02:47:39;;;;;;;8.10;4.13;;;;;;;;;;4970827;28;20042;-80
2022/11/12 02:50:05;;;;;;;6.22;3.88;;;;;;;;;;4971579;28;20034;-81
2022/11/12 02:52:31;;;;;;;7.15;3.95;;;;;;;;;;4984397;28;20045;-80
2022/11/12 02:54:57;;;;;;;7.47;3.85;;;;;;;;;;4988434;28;20497;-80
2022/11/12 02:57:22;;;;;;;6.43;3.78;;;;;;;;;;4988080;28;20038;-82
2022/11/12 02:59:47;;;;;;;8.50;4.22;;;;;;;;;;4973223;28;20393;-82
2022/11/12 03:02:13;;;;;;;7.45;3.63;;;;;;;;;;4979192;28;20076;-82
2022/11/12 03:04:38;;;;;;;8.57;3.90;;;;;;;;;;4995930;28;20046;-82
2022/11/12 03:07:04;;;;;;;6.57;3.63;;;;;;;;;;4977161;28;20097;-82
2022/11/12 03:09:29;;;;;;;8.45;3.70;;;;;;;;;;4982977;28;20026;-82
2022/11/12 03:11:54;;;;;;;8.70;3.70;;;;;;;;;;4980299;28;20034;-81
2022/11/12 03:14:20;;;;;;;7.85;3.88;;;;;;;;;;4980837;28;20058;-82
2022/11/12 03:16:49;;;;;;;8.93;4.05;;;;;;;;;;4990268;28;20493;-82
2022/11/12 03:19:14;;;;;;;8.15;3.90;;;;;;;;;;4979537;28;20117;-82
2022/11/12 03:21:39;;;;;;;6.60;3.38;;;;;;;;;;4978506;28;20125;-82
2022/11/12 03:24:05;;;;;;;7.50;3.72;;;;;;;;;;4990536;28;20050;-82
2022/11/12 03:26:30;;;;;;;7.65;3.90;;;;;;;;;;4981218;28;20042;-82
2022/11/12 03:28:56;;;;;;;8.85;3.70;;;;;;;;;;4975854;28;20033;-82
2022/11/12 03:31:21;;;;;;;7.57;4.05;;;;;;;;;;4977990;28;20453;-82
2022/11/12 03:33:47;;;;;;;6.72;3.67;;;;;;;;;;4982477;28;20034;-82
2022/11/12 03:36:12;;;;;;;6.50;3.50;;;;;;;;;;4971159;28;20042;-82
2022/11/12 03:38:38;;;;;;;7.43;3.80;;;;;;;;;;4976630;28;20401;-81
2022/11/12 03:41:03;;;;;;;5.82;3.65;;;;;;;;;;4977520;28;20049;-82
2022/11/12 03:43:29;;;;;;;7.53;4.00;;;;;;;;;;4964016;28;20041;-82
2022/11/12 03:45:54;;;;;;;6.75;3.65;;;;;;;;;;4971870;28;20034;-83
2022/11/12 03:48:19;;;;;;;5.75;3.35;;;;;;;;;;4970102;28;20037;-82
2022/11/12 03:50:45;;;;;;;8.70;4.30;;;;;;;;;;4981297;28;20042;-81
2022/11/12 03:53:10;;;;;;;7.38;3.60;;;;;;;;;;4967094;28;20084;-81
2022/11/12 03:55:36;;;;;;;8.52;3.63;;;;;;;;;;4975075;28;20034;-81
2022/11/12 03:58:01;;;;;;;5.85;3.53;;;;;;;;;;4995547;28;20085;-81
2022/11/12 04:00:28;;;;;;;7.55;3.92;;;;;;;;;;4969155;28;20037;-81
2022/11/12 04:02:54;;;;;;;6.50;3.63;;;;;;;;;;4980339;28;20042;-81
2022/11/12 04:10:48;;;;;;;7.40;3.58;;;;;;;;;;4978263;28;20116;-81
2022/11/12 04:13:28;;;;;;;6.60;3.88;;;;;;;;;;4976488;28;20038;-82
2022/11/12 04:21:49;;;;;;;7.43;3.90;;;;;;;;;;4992506;28;20138;-82
2022/11/12 04:27:14;;;;;;;5.88;3.33;;;;;;;;;;4986056;28;20066;-82
2022/11/12 04:32:25;;;;;;;5.95;3.28;;;;;;;;;;4992861;28;20093;-82
2022/11/12 04:34:52;;;;;;;8.65;3.80;;;;;;;;;;4995904;28;20073;-81
2022/11/12 04:37:18;;;;;;;7.13;3.90;;;;;;;;;;4968640;28;20504;-82
2022/11/12 04:39:43;;;;;;;7.03;3.75;;;;;;;;;;4971284;28;20037;-82
2022/11/12 04:45:03;;;;;;;6.95;3.38;;;;;;;;;;4978887;28;20108;-82
2022/11/12 04:47:33;;;;;;;7.10;4.05;;;;;;;;;;4977054;28;20498;-82
2022/11/12 04:49:59;;;;;;;6.60;3.30;;;;;;;;;;4965362;28;20084;-82
2022/11/12 04:52:26;;;;;;;6.00;2.97;;;;;;;;;;4985601;28;20030;-82
2022/11/12 04:54:51;;;;;;;6.75;3.45;;;;;;;;;;4992470;28;20453;-81
2022/11/12 04:57:17;;;;;;;6.07;3.35;;;;;;;;;;4970404;28;20038;-82
2022/11/12 04:59:42;;;;;;;7.72;3.63;;;;;;;;;;4986381;28;20041;-82
2022/11/12 05:02:08;;;;;;;7.95;3.65;;;;;;;;;;4968904;28;20085;-82
2022/11/12 05:04:33;;;;;;;7.53;3.67;;;;;;;;;;4975209;28;20042;-82
2022/11/12 05:06:59;;;;;;;6.15;3.45;;;;;;;;;;4977362;28;20564;-81
2022/11/12 05:09:26;;;;;;;7.90;3.58;;;;;;;;;;4991717;28;20062;-82
2022/11/12 05:11:54;;;;;;;6.97;3.72;;;;;;;;;;4969500;28;20036;-82
2022/11/12 05:14:20;;;;;;;6.13;3.13;;;;;;;;;;4963865;28;20034;-82
2022/11/12 05:16:45;;;;;;;5.88;3.35;;;;;;;;;;4969961;28;20721;-82
2022/11/12 05:19:11;;;;;;;8.90;3.90;;;;;;;;;;4967359;28;20121;-82
2022/11/12 05:24:20;;;;;;;6.63;3.63;;;;;;;;;;4985727;28;20042;-82
2022/11/12 05:26:45;;;;;;;6.45;3.60;;;;;;;;;;4962710;28;20038;-82
2022/11/12 05:29:11;;;;;;;8.23;3.28;;;;;;;;;;4980410;28;20090;-82
2022/11/12 05:31:36;;;;;;;7.38;3.15;;;;;;;;;;4986572;28;20465;-82
2022/11/12 05:34:02;;;;;;;6.18;3.13;;;;;;;;;;5000030;28;20112;-82
2022/11/12 05:36:27;;;;;;;8.45;3.70;;;;;;;;;;4997843;28;20026;-82
2022/11/12 05:38:52;;;;;;;6.05;3.38;;;;;;;;;;4973058;28;20104;-82
2022/11/12 05:41:18;;;;;;;6.57;3.58;;;;;;;;;;4989158;28;20145;-82
2022/11/12 05:43:43;;;;;;;6.72;3.50;;;;;;;;;;4970649;28;20505;-82
2022/11/12 05:46:09;;;;;;;7.25;3.75;;;;;;;;;;4956220;28;20034;-82
2022/11/12 05:48:34;;;;;;;7.05;3.70;;;;;;;;;;4983973;28;20125;-81
2022/11/12 05:50:59;;;;;;;8.73;3.75;;;;;;;;;;4982193;28;21015;-80
2022/11/12 05:53:25;;;;;;;9.70;4.63;;;;;;;;;;4988024;28;20039;-80
2022/11/12 05:55:50;;;;;;;9.00;4.55;;;;;;;;;;4993156;28;20037;-80
2022/11/12 05:58:16;;;;;;;8.30;4.47;;;;;;;;;;4998608;28;20060;-82
2022/11/12 06:00:41;;;;;;;8.68;4.45;;;;;;;;;;4975410;28;20045;-82
2022/11/12 06:03:07;;;;;;;7.50;4.45;;;;;;;;;;4995509;28;20042;-82
2022/11/12 06:05:34;;;;;;;7.30;4.10;;;;;;;;;;4968394;28;20058;-82
2022/11/12 06:07:59;;;;;;;7.55;4.07;;;;;;;;;;4986104;28;20034;-82
2022/11/12 06:10:28;;;;;;;10.07;4.90;;;;;;;;;;4971584;28;20037;-82
2022/11/12 06:12:53;;;;;;;7.85;4.20;;;;;;;;;;4981050;28;20043;-81
2022/11/12 06:15:20;;;;;;;8.07;4.72;;;;;;;;;;4982601;28;20461;-82
2022/11/12 06:17:46;;;;;;;7.13;3.75;;;;;;;;;;4967020;28;20038;-82
2022/11/12 06:20:12;;;;;;;8.10;4.00;;;;;;;;;;4981977;28;20038;-82
2022/11/12 06:22:37;;;;;;;9.77;4.13;;;;;;;;;;4975855;28;20121;-82
2022/11/12 06:25:04;;;;;;;9.68;4.43;;;;;;;;;;4984630;28;20038;-82
2022/11/12 06:27:30;;;;;;;10.20;4.60;;;;;;;;;;4975206;28;20508;-80
2022/11/12 06:29:56;;;;;;;7.70;4.30;;;;;;;;;;4974979;28;20037;-80
2022/11/12 06:32:22;;;;;;;7.43;4.45;;;;;;;;;;4981978;28;20045;-80
2022/11/12 06:34:47;;;;;;;9.05;4.25;;;;;;;;;;4982094;28;20066;-81
2022/11/12 06:37:12;;;;;;;7.88;4.22;;;;;;;;;;4962535;28;20038;-81
2022/11/12 06:39:38;;;;;;;8.35;4.18;;;;;;;;;;4964366;28;20114;-80
2022/11/12 06:42:03;;;;;;;7.72;3.75;;;;;;;;;;4995586;28;20093;-81
2022/11/12 06:44:29;;;;;;;8.98;4.35;;;;;;;;;;4967794;28;20030;-82
2022/11/12 06:46:54;;;;;;;6.68;3.88;;;;;;;;;;4978843;28;20030;-82
2022/11/12 06:49:19;;;;;;;8.15;3.95;;;;;;;;;;4960003;28;20044;-82
2022/11/12 06:51:45;;;;;;;8.05;4.28;;;;;;;;;;4973527;28;20413;-82
2022/11/12 06:54:10;;;;;;;7.30;3.70;;;;;;;;;;4972365;28;20037;-82
2022/11/12 06:56:35;;;;;;;8.27;4.15;;;;;;;;;;4971790;28;20400;-82
2022/11/12 06:59:02;;;;;;;7.05;4.15;;;;;;;;;;4979134;28;20030;-80
2022/11/12 07:01:28;;;;;;;8.73;4.27;;;;;;;;;;4987428;28;20053;-80
2022/11/12 07:03:56;;;;;;;8.57;4.50;;;;;;;;;;4966282;28;20292;-81
2022/11/12 07:06:21;;;;;;;6.93;4.35;;;;;;;;;;4965030;28;20058;-82
2022/11/12 07:08:48;;;;;;;7.47;4.15;;;;;;;;;;4995403;28;20710;-82
2022/11/12 07:11:14;;;;;;;7.88;4.57;;;;;;;;;;4995997;28;20041;-82
2022/11/12 07:13:39;;;;;;;8.32;4.50;;;;;;;;;;4968484;28;20038;-80
2022/11/12 07:16:06;;;;;;;8.25;4.60;;;;;;;;;;4964442;28;20034;-80
2022/11/12 07:18:33;;;;;;;9.15;4.53;;;;;;;;;;4997505;28;20068;-80
2022/11/12 07:21:00;;;;;;;8.27;4.45;;;;;;;;;;4990767;28;20120;-81
2022/11/12 07:23:26;;;;;;;9.00;4.47;;;;;;;;;;4989784;28;20037;-81
2022/11/12 07:26:16;;;;;;;7.80;4.50;;;;;;;;;;4980479;28;20428;-81
2022/11/12 07:28:42;;;;;;;7.75;4.45;;;;;;;;;;4966475;28;20045;-81
2022/11/12 07:31:10;;;;;;;8.38;4.18;;;;;;;;;;4970936;28;20025;-81
2022/11/12 07:33:36;;;;;;;8.85;4.22;;;;;;;;;;4975871;28;20034;-81
2022/11/12 07:36:06;;;;;;;8.15;4.60;;;;;;;;;;4992925;28;20088;-80
2022/11/12 07:38:36;;;;;;;8.43;4.85;;;;;;;;;;4965813;28;20494;-82
2022/11/12 07:41:10;;;;;;;9.23;4.32;;;;;;;;;;4978698;28;20395;-82
2022/11/12 07:43:36;;;;;;;8.73;5.15;;;;;;;;;;4976495;28;20034;-82
2022/11/12 07:46:06;;;;;;;8.32;4.88;;;;;;;;;;4970905;28;20034;-80
2022/11/12 07:48:32;;;;;;;10.95;5.90;;;;;;;;;;4974017;28;20085;-80
2022/11/12 07:50:59;;;;;;;7.28;4.72;;;;;;;;;;4965636;28;20037;-80
2022/11/12 07:53:25;;;;;;;10.77;5.00;;;;;;;;;;4971654;28;20993;-80
2022/11/12 07:55:54;;;;;;;9.05;4.70;;;;;;;;;;4994083;28;20033;-80
2022/11/12 07:58:20;;;;;;;9.93;4.55;;;;;;;;;;4966524;28;20392;-81
2022/11/12 08:00:46;;;;;;;8.32;5.28;;;;;;;;;;4966732;28;20034;-81
2022/11/12 08:03:11;;;;;;;8.85;5.07;;;;;;;;;;4982793;28;20029;-81
2022/11/12 08:05:36;;;;;;;8.85;4.68;;;;;;;;;;4964233;28;20056;-81
2022/11/12 08:08:02;;;;;;;9.45;4.95;;;;;;;;;;4980098;28;20091;-81
2022/11/12 08:10:27;;;;;;;8.93;5.05;;;;;;;;;;4976569;28;20041;-81
2022/11/12 08:12:55;;;;;;;9.15;5.30;;;;;;;;;;4968485;28;20037;-81
2022/11/12 08:15:20;;;;;;;8.20;4.35;;;;;;;;;;4961423;28;20510;-81
2022/11/12 08:17:45;;;;;;;8.40;4.88;;;;;;;;;;4967486;28;20048;-81
2022/11/12 08:20:11;;;;;;;7.70;4.28;;;;;;;;;;4963515;28;20410;-82
2022/11/12 08:22:37;;;;;;;8.65;4.68;;;;;;;;;;4992757;28;20041;-81
2022/11/12 08:25:06;;;;;;;6.60;3.90;;;;;;;;;;4968140;28;20489;-80
2022/11/12 08:27:32;;;;;;;8.15;4.10;;;;;;;;;;4986336;28;20044;-80
2022/11/12 08:29:57;;;;;;;5.93;3.53;;;;;;;;;;4982028;28;20034;-80
2022/11/12 08:32:23;;;;;;;5.90;3.22;;;;;;;;;;4979185;28;20038;-80
2022/11/12 08:34:48;;;;;;;6.45;3.40;;;;;;;;;;4973857;28;20035;-80
2022/11/12 08:37:14;;;;;;;6.35;3.60;;;;;;;;;;4970597;28;20034;-80
2022/11/12 08:39:39;;;;;;;6.57;3.92;;;;;;;;;;4989460;28;20038;-79
2022/11/12 08:42:04;;;;;;;7.25;3.35;;;;;;;;;;4952522;28;20049;-81
2022/11/12 08:44:30;;;;;;;6.72;3.72;;;;;;;;;;4959953;28;20134;-80
2022/11/12 08:46:55;;;;;;;10.77;3.47;;;;;;;;;;4952531;28;20494;-80
2022/11/12 08:49:21;;;;;;;5.97;3.15;;;;;;;;;;4961647;28;20057;-80
2022/11/12 08:51:46;;;;;;;8.15;4.35;;;;;;;;;;4961250;28;20034;-81
2022/11/12 08:54:12;;;;;;;7.43;4.10;;;;;;;;;;4955729;28;20061;-82
2022/11/12 08:56:38;;;;;;;7.50;3.30;;;;;;;;;;4959035;28;20054;-80
2022/11/12 08:59:04;;;;;;;5.88;3.70;;;;;;;;;;4992991;28;20064;-82
2022/11/12 09:01:29;;;;;;;8.15;4.22;;;;;;;;;;4979654;28;20874;-80
2022/11/12 09:03:55;;;;;;;8.27;4.00;;;;;;;;;;4959870;28;20045;-82
2022/11/12 09:06:20;;;;;;;7.05;3.90;;;;;;;;;;4980755;28;20048;-81
2022/11/12 09:08:45;;;;;;;8.13;4.30;;;;;;;;;;4959652;28;20037;-81
2022/11/12 09:11:11;;;;;;;6.60;3.75;;;;;;;;;;4977684;28;20026;-81
2022/11/12 09:13:36;;;;;;;8.20;3.60;;;;;;;;;;4971810;28;20035;-81
2022/11/12 09:16:06;;;;;;;5.68;3.47;;;;;;;;;;4979657;28;20145;-81
2022/11/12 09:18:32;;;;;;;8.60;3.95;;;;;;;;;;4985969;28;20411;-81
2022/11/12 09:21:09;;;;;;;7.20;3.72;;;;;;;;;;4976724;28;20474;-82
2022/11/12 09:23:35;;;;;;;8.88;4.25;;;;;;;;;;4986520;28;20123;-81
2022/11/12 09:26:00;;;;;;;7.85;4.25;;;;;;;;;;4969153;28;20401;-81
2022/11/12 09:28:26;;;;;;;7.07;3.80;;;;;;;;;;4980148;28;20045;-81
2022/11/12 09:30:52;;;;;;;7.82;4.88;;;;;;;;;;4988728;28;20036;-80
2022/11/12 09:33:24;;;;;;;8.20;4.75;;;;;;;;;;4995952;28;20033;-81
2022/11/12 09:35:49;;;;;;;8.65;5.32;;;;;;;;;;4953834;28;20632;-81
2022/11/12 09:38:15;;;;;;;9.15;5.03;;;;;;;;;;4975825;28;20125;-81
2022/11/12 09:41:04;;;;;;;7.40;4.20;;;;;;;;;;4986107;28;20027;-82
2022/11/12 09:43:49;;;;;;;10.55;4.55;;;;;;;;;;4968770;28;20049;-81
2022/11/12 09:46:23;;;;;;;8.25;5.20;;;;;;;;;;4965541;28;20061;-81
2022/11/12 09:49:11;;;;;;;8.95;4.80;;;;;;;;;;4975965;28;20034;-81
2022/11/12 09:51:42;;;;;;;8.85;4.78;;;;;;;;;;4968358;28;20045;-82
2022/11/12 09:54:30;;;;;;;10.48;5.80;;;;;;;;;;4988560;28;20030;-82
2022/11/12 09:56:56;;;;;;;12.43;5.50;;;;;;;;;;4981426;28;20381;-82
2022/11/12 09:59:25;;;;;;;8.68;4.82;;;;;;;;;;4970740;28;20038;-82
2022/11/12 10:02:23;;;;;;;10.70;5.18;;;;;;;;;;4970212;28;20062;-82
2022/11/12 10:05:14;;;;;;;9.52;5.22;;;;;;;;;;4971969;28;20042;-82
2022/11/12 10:07:58;;;;;;;10.23;5.20;;;;;;;;;;4965013;28;20101;-82
2022/11/12 10:10:38;;;;;;;12.77;6.22;;;;;;;;;;4985252;28;20118;-82
2022/11/12 10:13:21;;;;;;;11.82;6.40;;;;;;;;;;4974226;28;20524;-82
2022/11/12 10:19:39;;;;;;;13.45;6.22;;;;;;;;;;4991770;28;20608;-82
2022/11/12 10:22:13;;;;;;;13.13;6.38;;;;;;;;;;4963764;28;20034;-84
2022/11/12 10:24:39;;;;;;;14.50;7.18;;;;;;;;;;4994670;28;20053;-81
2022/11/12 10:27:27;;;;;;;14.35;7.28;;;;;;;;;;4993015;28;20463;-81
2022/11/12 10:29:56;;;;;;;13.27;6.90;;;;;;;;;;4986369;28;20188;-82
2022/11/12 10:32:21;;;;;;;13.38;6.43;;;;;;;;;;4968955;28;20414;-81
2022/11/12 10:34:46;;;;;;;15.88;7.28;;;;;;;;;;4975820;28;20038;-82
2022/11/12 10:37:35;;;;;;;14.90;7.53;;;;;;;;;;4975682;28;20044;-81
2022/11/12 10:40:21;;;;;;;14.23;7.55;;;;;;;;;;4964509;28;20401;-81
2022/11/12 10:42:57;;;;;;;13.27;6.85;;;;;;;;;;4979551;28;20068;-81
2022/11/12 10:45:22;;;;;;;13.95;6.82;;;;;;;;;;4977630;28;20725;-82
2022/11/12 10:47:48;;;;;;;16.83;7.65;;;;;;;;;;4983536;28;20034;-80
2022/11/12 10:50:18;;;;;;;15.13;7.28;;;;;;;;;;4973829;28;20069;-82
2022/11/12 10:53:04;;;;;;;13.60;6.90;;;;;;;;;;4994622;28;20088;-82
2022/11/12 10:55:34;;;;;;;12.23;6.95;;;;;;;;;;4976152;28;20080;-82
2022/11/12 10:58:04;;;;;;;15.85;8.10;;;;;;;;;;4971837;28;20463;-82
2022/11/12 11:00:29;;;;;;;13.27;6.60;;;;;;;;;;4964760;28;20045;-81
2022/11/12 11:02:55;;;;;;;14.65;6.80;;;;;;;;;;4985254;28;20039;-81
2022/11/12 11:05:34;;;;;;;12.30;6.60;;;;;;;;;;4976887;28;20401;-82
2022/11/12 11:08:00;;;;;;;13.25;6.82;;;;;;;;;;4954527;28;20039;-82
2022/11/12 11:10:27;;;;;;;12.63;6.05;;;;;;;;;;4970681;28;20042;-81
2022/11/12 11:13:19;;;;;;;11.47;5.77;;;;;;;;;;4968860;28;20034;-82
2022/11/12 11:15:59;;;;;;;10.45;5.47;;;;;;;;;;4977623;28;20138;-82
2022/11/12 11:18:26;;;;;;;11.15;5.60;;;;;;;;;;4975060;28;20031;-81
2022/11/12 11:21:01;;;;;;;11.60;5.25;;;;;;;;;;4970697;28;20034;-82
2022/11/12 11:23:31;;;;;;;9.63;5.32;;;;;;;;;;4978240;28;20441;-80
2022/11/12 11:26:02;;;;;;;10.65;5.40;;;;;;;;;;4987269;28;20148;-78
2022/11/12 11:28:32;;;;;;;10.77;4.38;;;;;;;;;;4960241;28;20042;-80
2022/11/12 11:30:57;;;;;;;9.45;4.78;;;;;;;;;;4962014;28;20038;-80
2022/11/12 11:33:23;;;;;;;10.30;4.70;;;;;;;;;;4984704;28;20041;-80
2022/11/12 11:36:03;;;;;;;9.30;4.30;;;;;;;;;;4966983;28;20042;-80
2022/11/12 11:38:28;;;;;;;11.98;5.18;;;;;;;;;;4979209;28;20061;-82
2022/11/12 11:41:29;;;;;;;9.60;5.13;;;;;;;;;;4976906;28;20033;-80
2022/11/12 11:44:18;;;;;;;10.55;5.00;;;;;;;;;;4977347;28;20038;-80
2022/11/12 11:46:49;;;;;;;11.18;5.07;;;;;;;;;;4968903;28;20476;-81
2022/11/12 11:49:46;;;;;;;10.15;4.85;;;;;;;;;;4978716;28;20041;-80
2022/11/12 11:52:33;;;;;;;9.25;4.60;;;;;;;;;;4993205;28;20103;-79
2022/11/12 11:55:16;;;;;;;9.32;4.53;;;;;;;;;;4992432;28;20397;-81
2022/11/12 11:57:55;;;;;;;11.00;4.82;;;;;;;;;;4967008;28;20046;-83
2022/11/12 12:00:22;;;;;;;8.43;4.90;;;;;;;;;;4971276;28;20533;-82
2022/11/12 12:03:03;;;;;;;11.50;4.85;;;;;;;;;;4979760;28;20093;-83
2022/11/12 12:06:04;;;;;;;10.05;5.15;;;;;;;;;;4995172;28;20100;-83
2022/11/12 12:08:48;;;;;;;9.30;4.95;;;;;;;;;;4961015;28;20069;-82
2022/11/12 12:11:35;;;;;;;10.45;5.88;;;;;;;;;;4992287;28;20088;-82
2022/11/12 12:14:15;;;;;;;13.00;5.63;;;;;;;;;;4975916;28;20081;-81
2022/11/12 12:17:11;;;;;;;10.55;5.85;;;;;;;;;;4975471;28;20048;-82
2022/11/12 12:19:55;;;;;;;11.52;6.20;;;;;;;;;;4990816;28;20047;-80
2022/11/12 12:22:37;;;;;;;10.48;5.88;;;;;;;;;;4959467;28;20509;-81
2022/11/12 12:25:08;;;;;;;11.60;5.80;;;;;;;;;;4978182;28;20034;-83
2022/11/12 12:27:37;;;;;;;11.77;5.88;;;;;;;;;;4975761;28;20703;-83
2022/11/12 12:30:05;;;;;;;12.63;6.57;;;;;;;;;;4987390;28;20057;-83
2022/11/12 12:32:38;;;;;;;12.90;6.70;;;;;;;;;;4982500;28;20039;-83
2022/11/12 12:35:30;;;;;;;12.52;6.70;;;;;;;;;;4953852;28;20047;-82
2022/11/12 12:38:11;;;;;;;12.80;6.15;;;;;;;;;;4967909;28;20448;-82
2022/11/12 12:40:42;;;;;;;10.65;6.25;;;;;;;;;;4964806;28;20563;-83
2022/11/12 12:43:17;;;;;;;11.95;6.22;;;;;;;;;;4994989;28;20038;-82
2022/11/12 12:45:43;;;;;;;11.00;6.22;;;;;;;;;;4974593;28;20803;-81
2022/11/12 12:48:14;;;;;;;11.50;6.15;;;;;;;;;;4980313;28;20106;-82
2022/11/12 12:50:40;;;;;;;11.85;6.70;;;;;;;;;;4977794;28;20045;-82
2022/11/12 12:53:21;;;;;;;11.35;6.68;;;;;;;;;;4974722;28;20034;-83
2022/11/12 12:55:50;;;;;;;11.18;6.38;;;;;;;;;;4974461;28;20099;-84
2022/11/12 12:58:31;;;;;;;12.68;6.93;;;;;;;;;;4959775;28;20034;-84
2022/11/12 13:01:02;;;;;;;12.13;6.90;;;;;;;;;;4975492;28;20030;-82
2022/11/12 13:03:43;;;;;;;12.63;6.65;;;;;;;;;;4971435;28;20528;-84
2022/11/12 13:06:20;;;;;;;14.57;7.10;;;;;;;;;;4977220;28;20045;-84
2022/11/12 13:08:46;;;;;;;;;;;;;;;;;;4996307;28;20157;-84
2022/11/12 13:12:20;;;;;;;12.32;6.43;;;;;;;;;;4986121;28;20433;-84
2022/11/12 13:14:34;;;;;;;12.98;6.63;;;;;;;;;;4996033;28;20048;-85
2022/11/12 13:17:05;;;;;;;13.23;6.50;;;;;;;;;;4977113;28;20053;-85
2022/11/12 13:19:46;;;;;;;15.10;6.97;;;;;;;;;;4993873;28;20070;-85
2022/11/12 13:22:17;;;;;;;13.30;6.68;;;;;;;;;;4975943;28;20034;-83
2022/11/12 13:25:04;;;;;;;11.00;5.90;;;;;;;;;;4993746;28;20515;-83
2022/11/12 13:27:38;;;;;;;15.23;6.53;;;;;;;;;;4973229;28;20451;-85
2022/11/12 13:30:27;;;;;;;12.93;6.32;;;;;;;;;;4969088;28;20057;-82
2022/11/12 13:32:57;;;;;;;12.38;6.05;;;;;;;;;;4913649;28;20199;-82
2022/11/12 13:35:22;;;;;;;12.48;6.03;;;;;;;;;;4936334;28;20039;-82
2022/11/12 13:38:06;;;;;;;14.48;6.25;;;;;;;;;;4992158;28;20042;-82
2022/11/12 13:40:43;;;;;;;9.70;5.85;;;;;;;;;;4995760;28;20039;-83
2022/11/12 13:43:14;;;;;;;12.68;6.40;;;;;;;;;;4964052;28;20034;-82
2022/11/12 13:45:45;;;;;;;12.35;6.53;;;;;;;;;;4976156;28;20042;-82
2022/11/12 13:48:20;;;;;;;14.13;6.57;;;;;;;;;;4982915;28;20033;-81
2022/11/12 13:50:51;;;;;;;11.85;6.07;;;;;;;;;;4963259;28;20042;-82
2022/11/12 13:53:22;;;;;;;9.65;5.60;;;;;;;;;;4968633;28;20034;-80
2022/11/12 13:55:51;;;;;;;11.30;5.70;;;;;;;;;;4980343;28;20052;-80
2022/11/12 13:58:24;;;;;;;11.30;6.20;;;;;;;;;;4967389;28;20419;-80
2022/11/12 14:00:52;;;;;;;13.82;6.60;;;;;;;;;;4970907;28;20379;-79
2022/11/12 14:03:18;;;;;;;10.88;5.78;;;;;;;;;;4967453;28;20081;-79
2022/11/12 14:05:47;;;;;;;10.63;6.10;;;;;;;;;;4993885;28;20442;-80
2022/11/12 14:08:40;;;;;;;10.52;6.20;;;;;;;;;;4969580;28;20405;-79
2022/11/12 14:11:44;;;;;;;11.75;6.53;;;;;;;;;;4974252;28;20042;-83
2022/11/12 14:14:51;;;;;;;12.35;5.43;;;;;;;;;;4923510;29;20082;-83
2022/11/12 14:17:58;;;;;;;11.98;5.88;;;;;;;;;;4892752;28;20632;-82
2022/11/12 14:20:35;;;;;;;13.15;6.47;;;;;;;;;;4871245;29;20126;-82
2022/11/12 14:23:20;;;;;;;11.73;6.45;;;;;;;;;;4901304;29;20088;-83
2022/11/12 14:25:55;;;;;;;13.98;6.88;;;;;;;;;;4926891;28;20060;-83
2022/11/12 14:28:28;;;;;;;17.25;8.20;;;;;;;;;;4924245;29;20646;-83
2022/11/12 14:30:54;;;;;;;15.85;7.65;;;;;;;;;;4900843;29;20581;-83
2022/11/12 14:33:22;;;;;;;12.80;6.95;;;;;;;;;;4928470;28;20050;-83
2022/11/12 14:35:48;;;;;;;14.90;7.35;;;;;;;;;;4927412;28;20101;-84
2022/11/12 14:38:24;;;;;;;11.82;6.35;;;;;;;;;;4940742;28;20043;-82
2022/11/12 14:41:01;;;;;;;15.05;7.22;;;;;;;;;;4957822;28;20510;-83
2022/11/12 14:43:34;;;;;;;17.33;7.60;;;;;;;;;;4932999;28;20114;-83
2022/11/12 14:46:01;;;;;;;18.85;8.18;;;;;;;;;;4931639;28;20098;-84
2022/11/12 14:48:27;;;;;;;15.48;7.43;;;;;;;;;;4937578;28;20062;-84
2022/11/12 14:51:03;;;;;;;15.68;7.53;;;;;;;;;;4958469;28;20042;-83
2022/11/12 14:53:37;;;;;;;14.02;6.63;;;;;;;;;;4988977;28;20045;-83
2022/11/12 14:56:04;;;;;;;14.32;6.57;;;;;;;;;;4981458;28;20038;-83
2022/11/12 14:58:31;;;;;;;12.07;5.97;;;;;;;;;;4993490;28;20122;-83
2022/11/12 15:01:27;;;;;;;17.67;6.32;;;;;;;;;;4978161;28;20038;-83
2022/11/12 15:04:12;;;;;;;13.02;6.15;;;;;;;;;;4988564;28;20039;-82
2022/11/12 15:06:40;;;;;;;11.95;5.50;;;;;;;;;;4994013;28;20129;-82
2022/11/12 15:09:06;;;;;;;11.20;5.50;;;;;;;;;;4980152;28;20038;-84
2022/11/12 15:11:42;;;;;;;11.55;5.55;;;;;;;;;;4983960;28;20041;-83
2022/11/12 15:14:20;;;;;;;14.00;6.32;;;;;;;;;;4988390;28;20161;-84
2022/11/12 15:16:45;;;;;;;12.75;6.07;;;;;;;;;;4995706;28;20042;-83
2022/11/12 15:19:25;;;;;;;13.57;5.85;;;;;;;;;;4970303;28;20517;-83
2022/11/12 15:21:50;;;;;;;12.90;6.20;;;;;;;;;;4981340;28;20034;-83
2022/11/12 15:24:30;;;;;;;12.93;5.55;;;;;;;;;;4963569;28;20497;-82